createdAt,value
2017-06-17T00:01:55.686Z,3.10
2017-06-17T00:04:23.234Z,2.50
2017-06-17T00:06:50.853Z,3.03
2017-06-17T00:09:18.384Z,3.40
2017-06-17T00:11:45.929Z,2.90
2017-06-17T00:14:13.499Z,2.67
2017-06-17T00:16:41.025Z,3.07
2017-06-17T00:19:09.329Z,2.80
2017-06-17T00:21:36.909Z,3.03
2017-06-17T00:24:04.430Z,2.77
2017-06-17T00:26:31.958Z,3.80
2017-06-17T00:28:59.548Z,2.90
2017-06-17T00:31:27.101Z,3.30
2017-06-17T00:33:55.400Z,4.00
2017-06-17T00:36:23.049Z,2.90
2017-06-17T00:38:50.566Z,3.10
2017-06-17T00:41:18.095Z,3.40
2017-06-17T00:43:45.673Z,3.47
2017-06-17T00:46:13.203Z,3.20
2017-06-17T00:48:40.744Z,3.33
2017-06-17T00:51:08.323Z,3.30
2017-06-17T00:53:35.843Z,3.47
2017-06-17T00:56:04.154Z,3.13
2017-06-17T00:58:31.727Z,2.77
2017-06-17T01:00:59.259Z,4.43
2017-06-17T01:03:27.551Z,3.10
2017-06-17T01:05:55.108Z,4.07
2017-06-17T01:08:22.652Z,3.40
2017-06-17T01:10:50.175Z,3.30
2017-06-17T01:13:17.754Z,3.80
2017-06-17T01:15:45.300Z,3.80
2017-06-17T01:18:12.838Z,3.90
2017-06-17T01:20:40.413Z,3.43
2017-06-17T01:23:07.939Z,4.40
2017-06-17T01:25:35.476Z,4.10
2017-06-17T01:28:03.825Z,3.60
2017-06-17T01:30:31.354Z,3.83
2017-06-17T01:32:58.921Z,3.40
2017-06-17T01:35:26.542Z,3.53
2017-06-17T01:37:54.065Z,3.50
2017-06-17T01:40:21.585Z,3.50
2017-06-17T01:42:49.178Z,4.10
2017-06-17T01:45:16.691Z,3.00
2017-06-17T01:47:44.214Z,3.87
2017-06-17T01:50:11.798Z,3.97
2017-06-17T01:52:40.110Z,3.30
2017-06-17T01:55:07.660Z,3.67
2017-06-17T01:57:35.269Z,4.10
2017-06-17T02:00:02.826Z,3.90
2017-06-17T02:02:30.371Z,4.90
2017-06-17T02:04:57.968Z,3.43
2017-06-17T02:07:25.489Z,4.10
2017-06-17T02:09:53.017Z,4.20
2017-06-17T02:12:20.601Z,4.00
2017-06-17T02:14:48.146Z,3.70
2017-06-17T02:17:15.667Z,3.90
2017-06-17T02:19:43.244Z,4.17
2017-06-17T02:22:10.768Z,4.60
2017-06-17T02:24:38.288Z,4.73
2017-06-17T02:27:05.867Z,4.70
2017-06-17T02:29:33.396Z,4.40
2017-06-17T02:32:00.937Z,5.17
2017-06-17T02:34:29.281Z,5.90
2017-06-17T02:36:56.863Z,4.27
2017-06-17T02:39:24.421Z,5.00
2017-06-17T02:41:52.007Z,5.37
2017-06-17T02:44:19.546Z,5.50
2017-06-17T02:46:47.083Z,5.00
2017-06-17T02:49:14.668Z,5.47
2017-06-17T02:51:42.196Z,5.20
2017-06-17T02:54:09.740Z,5.57
2017-06-17T02:56:37.323Z,5.40
2017-06-17T02:59:04.839Z,4.83
2017-06-17T03:01:32.374Z,5.60
2017-06-17T03:04:00.740Z,5.30
2017-06-17T03:06:28.264Z,5.00
2017-06-17T03:08:55.779Z,5.43
2017-06-17T03:11:28.663Z,5.97
2017-06-17T03:13:56.203Z,5.67
2017-06-17T03:16:23.724Z,5.30
2017-06-17T03:18:51.304Z,5.60
2017-06-17T03:21:18.842Z,5.03
2017-06-17T03:23:46.398Z,5.43
2017-06-17T03:26:13.971Z,4.57
2017-06-17T03:28:41.496Z,4.70
2017-06-17T03:31:09.026Z,6.23
2017-06-17T03:33:36.603Z,4.83
2017-06-17T03:36:04.899Z,4.57
2017-06-17T03:38:32.425Z,5.03
2017-06-17T03:41:00.009Z,5.40
2017-06-17T03:43:28.306Z,5.00
2017-06-17T03:45:55.844Z,4.70
2017-06-17T03:48:24.196Z,5.37
2017-06-17T03:50:51.714Z,6.23
2017-06-17T03:53:19.257Z,5.77
2017-06-17T03:55:46.831Z,5.20
2017-06-17T03:58:14.364Z,5.00
2017-06-17T04:00:41.895Z,5.50
2017-06-17T04:03:09.472Z,5.90
2017-06-17T04:05:37.796Z,5.00
2017-06-17T04:08:05.319Z,5.60
2017-06-17T04:10:33.663Z,5.77
2017-06-17T04:13:01.223Z,5.50
2017-06-17T04:15:28.757Z,5.57
2017-06-17T04:17:56.343Z,5.20
2017-06-17T04:20:23.872Z,4.23
2017-06-17T04:22:51.405Z,4.73
2017-06-17T04:25:19.745Z,4.90
2017-06-17T04:27:47.277Z,5.70
2017-06-17T04:30:14.823Z,5.33
2017-06-17T04:32:42.408Z,5.73
2017-06-17T04:35:09.928Z,4.90
2017-06-17T04:37:37.480Z,5.67
2017-06-17T04:40:05.845Z,5.03
2017-06-17T04:42:33.371Z,4.60
2017-06-17T04:45:00.911Z,4.77
2017-06-17T04:47:28.492Z,4.77
2017-06-17T04:49:56.014Z,4.40
2017-06-17T04:52:23.524Z,5.47
2017-06-17T04:54:51.102Z,4.07
2017-06-17T04:57:18.623Z,4.30
2017-06-17T04:59:46.136Z,4.30
2017-06-17T05:02:14.484Z,4.10
2017-06-17T05:04:42.117Z,5.37
2017-06-17T05:07:09.640Z,3.70
2017-06-17T05:09:37.215Z,4.63
2017-06-17T05:12:04.746Z,4.03
2017-06-17T05:14:32.270Z,3.87
2017-06-17T05:16:59.840Z,4.00
2017-06-17T05:19:27.396Z,3.50
2017-06-17T05:21:54.937Z,4.07
2017-06-17T05:24:22.514Z,3.47
2017-06-17T05:26:50.048Z,3.17
2017-06-17T05:29:17.577Z,4.10
2017-06-17T05:31:45.181Z,4.03
2017-06-17T05:34:12.715Z,3.60
2017-06-17T05:36:40.237Z,3.77
2017-06-17T05:39:07.838Z,3.57
2017-06-17T05:41:35.847Z,4.10
2017-06-17T05:44:03.381Z,3.40
2017-06-17T05:46:30.973Z,3.80
2017-06-17T05:48:58.494Z,3.50
2017-06-17T05:51:26.023Z,3.87
2017-06-17T05:53:55.100Z,2.90
2017-06-17T05:56:23.412Z,3.87
2017-06-17T05:58:51.718Z,3.30
2017-06-17T06:01:19.297Z,3.50
2017-06-17T06:03:46.809Z,3.70
2017-06-17T06:06:15.122Z,3.57
2017-06-17T06:08:42.702Z,3.47
2017-06-17T06:11:10.233Z,2.93
2017-06-17T06:13:37.763Z,3.50
2017-06-17T06:16:06.130Z,3.30
2017-06-17T06:18:34.420Z,5.73
2017-06-17T06:21:01.965Z,3.30
2017-06-17T06:23:29.645Z,3.33
2017-06-17T06:25:57.168Z,3.40
2017-06-17T06:28:24.740Z,3.63
2017-06-17T06:30:52.311Z,3.40
2017-06-17T06:33:20.600Z,3.23
2017-06-17T06:35:48.147Z,3.57
2017-06-17T06:38:15.725Z,3.10
2017-06-17T06:40:43.325Z,2.80
2017-06-17T06:43:10.941Z,3.30
2017-06-17T06:45:38.525Z,4.20
2017-06-17T06:48:06.108Z,3.27
2017-06-17T06:50:35.712Z,3.23
2017-06-17T06:53:03.330Z,3.00
2017-06-17T06:55:30.856Z,3.30
2017-06-17T06:57:58.407Z,3.40
2017-06-17T07:00:25.978Z,2.73
2017-06-17T07:02:53.500Z,3.00
2017-06-17T07:05:21.027Z,3.27
2017-06-17T07:07:48.605Z,3.77
2017-06-17T07:10:16.120Z,3.40
2017-06-17T07:12:43.653Z,3.00
2017-06-17T07:15:11.549Z,3.13
2017-06-17T07:17:39.069Z,3.03
2017-06-17T07:20:06.599Z,3.07
2017-06-17T07:22:34.211Z,2.80
2017-06-17T07:25:01.743Z,2.80
2017-06-17T07:27:29.282Z,2.43
2017-06-17T07:29:56.861Z,2.80
2017-06-17T07:32:24.385Z,2.97
2017-06-17T07:34:51.901Z,3.50
2017-06-17T07:37:19.479Z,3.07
2017-06-17T07:39:47.007Z,3.30
2017-06-17T07:42:14.552Z,2.90
2017-06-17T07:44:42.164Z,3.43
2017-06-17T07:47:12.791Z,3.40
2017-06-17T07:49:40.536Z,4.40
2017-06-17T07:52:08.110Z,3.40
2017-06-17T07:54:35.638Z,3.23
2017-06-17T07:57:03.929Z,4.27
2017-06-17T07:59:31.509Z,3.10
2017-06-17T08:01:59.039Z,3.03
2017-06-17T08:04:26.600Z,3.20
2017-06-17T08:06:54.178Z,3.00
2017-06-17T08:09:21.714Z,3.80
2017-06-17T08:11:49.256Z,3.50
2017-06-17T08:14:17.592Z,3.47
2017-06-17T08:16:45.121Z,3.10
2017-06-17T08:19:12.656Z,2.97
2017-06-17T08:21:40.989Z,3.57
2017-06-17T08:24:08.514Z,3.07
2017-06-17T08:26:36.098Z,3.33
2017-06-17T08:29:03.681Z,2.67
2017-06-17T08:31:31.206Z,3.33
2017-06-17T08:33:58.736Z,3.13
2017-06-17T08:36:27.076Z,2.77
2017-06-17T08:38:54.607Z,3.10
2017-06-17T08:41:22.135Z,3.90
2017-06-17T08:43:49.712Z,3.13
2017-06-17T08:46:18.005Z,2.93
2017-06-17T08:48:45.545Z,3.30
2017-06-17T08:51:13.178Z,3.03
2017-06-17T08:53:40.717Z,3.33
2017-06-17T08:56:08.252Z,3.23
2017-06-17T08:58:35.844Z,3.53
2017-06-17T09:01:04.140Z,3.40
2017-06-17T09:03:32.905Z,3.93
2017-06-17T09:11:47.094Z,3.13
2017-06-17T09:14:19.145Z,3.90
2017-06-17T09:39:44.505Z,3.00
2017-06-17T09:42:19.623Z,2.90
2017-06-17T09:44:47.243Z,3.73
2017-06-17T09:50:19.823Z,3.13
2017-06-17T09:52:47.386Z,3.47
2017-06-17T09:55:15.091Z,3.50
2017-06-17T09:57:43.771Z,3.00
2017-06-17T10:00:31.896Z,3.77
2017-06-17T10:11:59.692Z,3.03
2017-06-17T10:14:34.611Z,3.40
2017-06-17T10:17:04.956Z,2.67
2017-06-17T10:19:38.144Z,3.07
2017-06-17T10:22:05.854Z,2.73
2017-06-17T10:27:12.341Z,2.83
2017-06-17T10:29:42.799Z,3.43
2017-06-17T10:32:11.443Z,2.90
2017-06-17T10:34:39.592Z,3.00
2017-06-17T10:37:08.350Z,3.13
2017-06-17T10:39:42.258Z,3.00
2017-06-17T10:42:10.947Z,2.90
2017-06-17T10:44:40.298Z,3.03
2017-06-17T10:47:07.996Z,3.63
2017-06-17T10:49:35.556Z,3.70
2017-06-17T10:52:05.070Z,3.50
2017-06-17T10:54:32.697Z,3.43
2017-06-17T10:57:00.233Z,3.47
2017-06-17T10:59:27.789Z,4.20
2017-06-17T11:01:55.400Z,2.73
2017-06-17T11:04:22.938Z,3.30
2017-06-17T11:06:50.653Z,3.60
2017-06-17T11:09:18.260Z,2.80
2017-06-17T11:11:45.800Z,3.87
2017-06-17T11:14:13.338Z,2.93
2017-06-17T11:16:40.918Z,2.30
2017-06-17T11:19:08.487Z,5.30
2017-06-17T11:21:36.017Z,2.77
2017-06-17T11:24:03.624Z,2.93
2017-06-17T11:26:31.155Z,3.00
2017-06-17T11:28:59.069Z,2.97
2017-06-17T11:31:26.653Z,32.00
2017-06-17T11:33:54.205Z,3.03
2017-06-17T11:36:21.742Z,2.47
2017-06-17T11:38:49.325Z,2.60
2017-06-17T11:41:16.870Z,2.87
2017-06-17T11:43:44.445Z,4.40
2017-06-17T11:46:12.033Z,15.83
2017-06-17T11:48:39.564Z,2.90
2017-06-17T11:51:07.129Z,13.07
2017-06-17T11:53:34.708Z,2.90
2017-06-17T11:56:02.232Z,2.20
2017-06-17T11:58:29.770Z,2.60
2017-06-17T12:00:57.376Z,9.90
2017-06-17T12:03:24.917Z,7.40
2017-06-17T12:05:52.446Z,2.83
2017-06-17T12:08:20.105Z,2.50
2017-06-17T12:10:47.671Z,2.10
2017-06-17T12:13:15.210Z,2.20
2017-06-17T12:15:42.793Z,2.47
2017-06-17T12:18:10.352Z,4.00
2017-06-17T12:20:37.886Z,2.73
2017-06-17T12:23:05.476Z,2.50
2017-06-17T12:25:33.029Z,3.10
2017-06-17T12:28:00.561Z,2.70
2017-06-17T12:30:28.141Z,5.23
2017-06-17T12:32:55.715Z,2.30
2017-06-17T12:35:23.262Z,2.40
2017-06-17T12:37:50.849Z,6.23
2017-06-17T12:40:18.382Z,3.27
2017-06-17T12:42:45.923Z,7.87
2017-06-17T12:45:13.501Z,1.90
2017-06-17T12:47:41.033Z,1.93
2017-06-17T12:50:08.565Z,2.50
2017-06-17T12:52:36.153Z,2.20
2017-06-17T12:55:03.676Z,2.03
2017-06-17T12:57:31.201Z,2.20
2017-06-17T12:59:58.774Z,2.13
2017-06-17T13:02:26.302Z,1.80
2017-06-17T13:04:53.842Z,2.10
2017-06-17T13:07:21.449Z,1.83
2017-06-17T13:09:48.973Z,2.10
2017-06-17T13:12:16.501Z,2.37
2017-06-17T13:14:44.071Z,2.47
2017-06-17T13:17:11.614Z,2.10
2017-06-17T13:19:39.171Z,2.63
2017-06-17T13:22:06.782Z,2.53
2017-06-17T13:24:35.208Z,2.20
2017-06-17T13:27:03.632Z,1.73
2017-06-17T13:29:31.223Z,1.97
2017-06-17T13:31:58.771Z,2.07
2017-06-17T13:34:26.296Z,2.43
2017-06-17T13:36:53.888Z,2.70
2017-06-17T13:39:21.406Z,2.50
2017-06-17T13:41:48.961Z,2.50
2017-06-17T13:44:16.579Z,2.20
2017-06-17T13:46:44.109Z,2.30
2017-06-17T13:49:11.665Z,2.13
2017-06-17T13:51:39.507Z,1.87
2017-06-17T13:54:07.061Z,2.10
2017-06-17T13:56:34.608Z,2.07
2017-06-17T13:59:02.190Z,2.07
2017-06-17T14:01:29.736Z,2.00
2017-06-17T14:03:57.300Z,2.10
2017-06-17T14:06:24.897Z,1.80
2017-06-17T14:08:52.425Z,2.30
2017-06-17T14:11:19.962Z,2.10
2017-06-17T14:13:47.539Z,1.80
2017-06-17T14:16:15.095Z,1.90
2017-06-17T14:18:42.630Z,2.03
2017-06-17T14:21:31.021Z,1.70
2017-06-17T14:23:58.615Z,1.87
2017-06-17T14:26:26.132Z,1.60
2017-06-17T14:28:53.745Z,2.90
2017-06-17T14:31:21.276Z,1.63
2017-06-17T14:33:48.805Z,1.80
2017-06-17T14:36:16.399Z,1.80
2017-06-17T14:38:43.953Z,1.67
2017-06-17T14:41:11.471Z,1.90
2017-06-17T14:43:39.092Z,1.80
2017-06-17T14:46:06.617Z,1.67
2017-06-17T14:48:34.146Z,1.50
2017-06-17T14:51:01.738Z,1.93
2017-06-17T14:53:29.271Z,2.50
2017-06-17T14:55:56.815Z,1.73
2017-06-17T14:58:24.392Z,2.77
2017-06-17T15:00:51.912Z,2.77
2017-06-17T15:03:19.440Z,2.30
2017-06-17T15:05:47.040Z,1.80
2017-06-17T15:08:14.574Z,2.00
2017-06-17T15:10:42.130Z,2.20
2017-06-17T15:13:09.727Z,2.30
2017-06-17T15:15:37.281Z,2.17
2017-06-17T15:18:04.817Z,2.57
2017-06-17T15:20:32.403Z,1.90
2017-06-17T15:22:59.945Z,2.13
2017-06-17T15:25:27.470Z,1.77
2017-06-17T15:27:55.899Z,1.67
2017-06-17T15:30:23.429Z,2.17
2017-06-17T15:32:50.955Z,1.70
2017-06-17T15:35:18.531Z,1.70
2017-06-17T15:37:46.068Z,1.80
2017-06-17T15:40:13.596Z,1.80
2017-06-17T15:42:41.178Z,1.83
2017-06-17T15:45:08.712Z,2.33
2017-06-17T15:50:27.821Z,2.27
2017-06-17T15:52:56.272Z,2.03
2017-06-17T15:58:08.732Z,1.70
2017-06-17T16:00:41.155Z,2.07
2017-06-17T16:03:09.621Z,1.67
2017-06-17T16:05:45.561Z,2.60
2017-06-17T16:08:14.082Z,1.80
2017-06-17T16:10:50.577Z,2.07
2017-06-17T16:13:18.224Z,2.37
2017-06-17T16:15:45.756Z,3.07
2017-06-17T16:18:13.311Z,2.30
2017-06-17T16:20:40.901Z,3.00
2017-06-17T16:23:08.432Z,2.83
2017-06-17T16:25:35.969Z,4.70
2017-06-17T16:28:03.632Z,3.67
2017-06-17T16:38:29.284Z,1.73
2017-06-17T16:43:41.749Z,1.70
2017-06-17T16:46:09.295Z,2.27
2017-06-17T16:48:36.827Z,1.80
2017-06-17T16:51:04.538Z,2.50
2017-06-17T16:53:32.063Z,2.20
2017-06-17T16:55:59.620Z,1.90
2017-06-17T16:58:27.192Z,2.23
2017-06-17T17:00:54.724Z,4.30
2017-06-17T17:03:22.311Z,2.53
2017-06-17T17:05:49.905Z,1.90
2017-06-17T17:08:17.586Z,2.60
2017-06-17T17:10:45.113Z,3.20
2017-06-17T17:13:12.761Z,2.63
2017-06-17T17:15:40.302Z,2.20
2017-06-17T17:18:08.517Z,2.30
2017-06-17T17:20:37.243Z,2.53
2017-06-17T17:23:04.793Z,2.53
2017-06-17T17:25:32.324Z,2.07
2017-06-17T17:27:59.903Z,2.23
2017-06-17T17:30:27.451Z,3.43
2017-06-17T17:32:54.998Z,2.60
2017-06-17T17:35:22.603Z,2.80
2017-06-17T17:37:50.145Z,2.50
2017-06-17T17:40:17.669Z,2.23
2017-06-17T17:42:45.255Z,2.03
2017-06-17T17:45:12.787Z,2.20
2017-06-17T17:47:40.325Z,2.00
2017-06-17T17:50:07.929Z,2.13
2017-06-17T17:52:35.469Z,2.00
2017-06-17T17:55:03.009Z,1.87
2017-06-17T17:57:30.601Z,1.90
2017-06-17T17:59:58.158Z,1.80
2017-06-17T18:02:25.693Z,2.20
2017-06-17T18:04:53.881Z,2.47
2017-06-17T18:07:21.400Z,2.30
2017-06-17T18:09:48.950Z,2.00
2017-06-17T18:12:17.391Z,2.43
2017-06-17T18:14:45.569Z,2.80
2017-06-17T18:17:13.110Z,2.17
2017-06-17T18:19:40.698Z,2.80
2017-06-17T18:22:08.232Z,2.80
2017-06-17T18:24:35.776Z,2.33
2017-06-17T18:27:03.414Z,2.30
2017-06-17T18:35:16.891Z,2.80
2017-06-17T18:37:44.435Z,2.90
2017-06-17T18:40:12.013Z,2.50
2017-06-17T18:42:39.602Z,3.10
2017-06-17T18:45:07.137Z,3.47
2017-06-17T18:47:34.669Z,4.70
2017-06-17T18:50:02.249Z,4.93
2017-06-17T18:52:29.786Z,4.03
2017-06-17T18:54:57.316Z,5.33
2017-06-17T18:57:25.430Z,4.13
2017-06-17T18:59:52.955Z,3.40
2017-06-17T19:02:20.486Z,3.27
2017-06-17T19:04:48.058Z,3.57
2017-06-17T19:07:15.589Z,3.20
2017-06-17T19:09:44.171Z,3.27
2017-06-17T19:12:11.750Z,3.40
2017-06-17T19:14:39.280Z,3.70
2017-06-17T19:17:06.841Z,3.10
2017-06-17T19:19:34.440Z,3.60
2017-06-17T19:22:02.000Z,4.00
2017-06-17T19:24:29.563Z,4.90
2017-06-17T19:26:57.410Z,4.70
2017-06-17T19:29:24.941Z,5.03
2017-06-17T19:31:52.517Z,4.87
2017-06-17T19:34:20.090Z,4.50
2017-06-17T19:36:47.638Z,4.90
2017-06-17T19:39:15.174Z,4.53
2017-06-17T19:41:42.798Z,5.17
2017-06-17T19:44:10.331Z,4.93
2017-06-17T19:46:37.885Z,4.80
2017-06-17T19:49:05.470Z,6.10
2017-06-17T19:51:33.010Z,5.90
2017-06-17T19:54:00.589Z,6.00
2017-06-17T19:56:28.168Z,6.43
2017-06-17T19:58:55.727Z,5.30
2017-06-17T20:01:23.350Z,5.33
2017-06-17T20:03:50.958Z,6.03
2017-06-17T20:06:18.528Z,5.10
2017-06-17T20:08:46.064Z,5.43
2017-06-17T20:11:13.651Z,5.20
2017-06-17T20:13:41.200Z,6.83
2017-06-17T20:16:08.757Z,8.83
2017-06-17T20:18:36.333Z,7.80
2017-06-17T20:21:09.438Z,9.67
2017-06-17T20:23:37.078Z,8.50
2017-06-17T20:26:04.670Z,9.00
2017-06-17T20:28:32.229Z,8.50
2017-06-17T20:31:01.541Z,6.97
2017-06-17T20:33:29.083Z,5.80
2017-06-17T20:35:56.776Z,6.87
2017-06-17T20:38:26.654Z,6.37
2017-06-17T20:40:57.496Z,7.37
2017-06-17T20:43:25.086Z,11.50
2017-06-17T20:45:52.711Z,11.00
2017-06-17T20:48:20.273Z,10.37
2017-06-17T20:50:47.831Z,12.00
2017-06-17T20:53:15.425Z,11.77
2017-06-17T20:55:43.012Z,11.67
2017-06-17T20:58:10.584Z,11.90
2017-06-17T21:00:38.182Z,11.93
2017-06-17T21:03:05.733Z,12.20
2017-06-17T21:05:33.292Z,12.30
2017-06-17T21:08:00.892Z,11.83
2017-06-17T21:10:28.426Z,12.77
2017-06-17T21:12:55.985Z,13.13
2017-06-17T21:15:23.575Z,14.07
2017-06-17T21:17:51.121Z,11.20
2017-06-17T21:20:18.664Z,11.27
2017-06-17T21:22:46.243Z,13.40
2017-06-17T21:25:13.777Z,11.87
2017-06-17T21:27:41.315Z,13.17
2017-06-17T21:30:08.925Z,10.77
2017-06-17T21:32:36.468Z,13.00
2017-06-17T21:35:04.010Z,16.07
2017-06-17T21:37:31.599Z,15.03
2017-06-17T21:39:59.146Z,14.13
2017-06-17T21:42:26.690Z,11.00
2017-06-17T21:44:54.284Z,12.60
2017-06-17T21:47:21.864Z,11.10
2017-06-17T21:49:49.422Z,9.50
2017-06-17T21:52:17.048Z,10.67
2017-06-17T21:54:44.599Z,11.80
2017-06-17T21:57:12.153Z,8.10
2017-06-17T21:59:39.739Z,11.03
2017-06-17T22:02:07.288Z,11.00
2017-06-17T22:04:34.874Z,12.57
2017-06-17T22:07:02.469Z,12.40
2017-06-17T22:09:30.025Z,11.20
2017-06-17T22:11:57.556Z,11.93
2017-06-17T22:14:25.133Z,12.67
2017-06-17T22:16:52.669Z,12.70
2017-06-17T22:19:20.208Z,12.30
2017-06-17T22:21:47.798Z,12.50
2017-06-17T22:24:15.388Z,12.40
2017-06-17T22:26:42.932Z,12.77
2017-06-17T22:29:10.596Z,11.90
2017-06-17T22:31:38.157Z,13.33
2017-06-17T22:34:05.697Z,14.63
2017-06-17T22:36:33.268Z,13.50
2017-06-17T22:39:00.824Z,14.40
2017-06-17T22:41:28.387Z,14.87
2017-06-17T22:43:55.976Z,14.70
2017-06-17T22:46:23.565Z,14.50
2017-06-17T22:48:51.090Z,15.10
2017-06-17T22:51:18.677Z,17.97
2017-06-17T22:53:46.239Z,20.10
2017-06-17T22:56:13.780Z,20.17
2017-06-17T22:58:41.360Z,20.37
2017-06-17T23:01:08.923Z,20.10
2017-06-17T23:03:36.452Z,20.77
2017-06-17T23:06:04.070Z,21.00
2017-06-17T23:08:31.596Z,20.90
2017-06-17T23:10:59.140Z,55.80
2017-06-17T23:13:26.738Z,115.87
2017-06-17T23:15:54.298Z,83.40
2017-06-17T23:18:21.841Z,77.43
2017-06-17T23:20:49.408Z,49.07
2017-06-17T23:23:16.931Z,36.73
2017-06-17T23:25:44.458Z,35.80
2017-06-17T23:28:12.067Z,29.20
2017-06-17T23:30:39.609Z,27.80
2017-06-17T23:33:07.138Z,16.87
2017-06-17T23:35:34.724Z,16.47
2017-06-17T23:38:02.280Z,16.93
2017-06-17T23:40:29.813Z,15.10
2017-06-17T23:42:57.392Z,12.90
2017-06-17T23:45:24.937Z,14.07
2017-06-17T23:47:52.543Z,14.40
2017-06-17T23:50:20.137Z,12.70
2017-06-17T23:52:47.681Z,12.47
2017-06-17T23:55:15.203Z,12.83
2017-06-17T23:57:42.779Z,15.90
